Time;durP1;ratioP1;P1;durP2;ratioP2;P2;SDS_P1;SDS_P2;PMS_P1;PMS_P2;Temp;Humidity;BMP_temperature;BMP_pressure;BME280_temperature;BME280_humidity;BME280_pressure;Samples;Min_cycle;Max_cycle;Signal;HPM_P1;HPM_P2
2022/06/06 00:00:03;;;;;;;4.13;2.55;;;16.60;99.90;;;;;;5037471;28;20033;-78
2022/06/06 00:02:30;;;;;;;3.25;2.53;;;16.60;99.90;;;;;;5031009;28;20029;-80
2022/06/06 00:04:57;;;;;;;2.35;2.15;;;16.60;99.90;;;;;;5027372;28;20034;-78
2022/06/06 00:07:23;;;;;;;2.97;2.20;;;16.50;99.90;;;;;;5026193;28;20243;-78
2022/06/06 00:09:49;;;;;;;2.70;2.05;;;16.40;99.90;;;;;;5024861;28;20036;-79
2022/06/06 00:12:16;;;;;;;2.90;2.58;;;16.10;99.90;;;;;;5025183;28;20025;-80
2022/06/06 00:14:42;;;;;;;3.17;1.70;;;16.00;99.90;;;;;;5026579;28;20126;-78
2022/06/06 00:17:08;;;;;;;3.80;2.13;;;15.80;99.90;;;;;;5026259;28;20033;-78
2022/06/06 00:19:34;;;;;;;7.22;3.75;;;15.80;99.90;;;;;;5026180;28;20033;-78
2022/06/06 00:22:00;;;;;;;13.30;4.13;;;15.60;99.90;;;;;;5015931;28;20026;-79
2022/06/06 00:24:26;;;;;;;4.25;3.05;;;15.40;99.90;;;;;;5006284;28;20227;-80
2022/06/06 00:26:51;;;;;;;3.22;2.67;;;15.20;99.90;;;;;;5006733;28;20041;-78
2022/06/06 00:29:19;;;;;;;12.10;4.97;;;15.10;99.90;;;;;;5006683;28;20467;-78
2022/06/06 00:34:49;;;;;;;13.60;5.40;;;14.80;99.90;;;;;;5006619;28;20497;-78
2022/06/06 00:37:19;;;;;;;5.40;3.60;;;14.80;99.90;;;;;;5007881;28;20052;-76
2022/06/06 00:39:45;;;;;;;5.47;2.33;;;14.70;99.90;;;;;;5006061;28;20045;-81
2022/06/06 00:42:36;;;;;;;9.40;3.53;;;14.50;99.90;;;;;;5006629;28;20068;-78
2022/06/06 00:45:20;;;;;;;5.32;3.40;;;14.50;99.90;;;;;;5006868;28;20377;-80
2022/06/06 00:48:04;;;;;;;6.57;4.00;;;14.30;99.90;;;;;;5007537;28;20049;-78
2022/06/06 00:51:02;;;;;;;6.13;3.40;;;14.30;99.90;;;;;;5009074;28;20080;-77
2022/06/06 00:53:43;;;;;;;4.40;2.70;;;14.20;99.90;;;;;;5006096;28;20034;-79
2022/06/06 00:56:28;;;;;;;6.75;3.28;;;14.20;99.90;;;;;;5008908;28;20072;-78
2022/06/06 00:58:59;;;;;;;8.93;3.85;;;14.10;99.90;;;;;;5019953;28;20042;-78
2022/06/06 01:01:27;;;;;;;5.18;3.00;;;14.10;99.90;;;;;;5015831;28;20025;-77
2022/06/06 01:03:56;;;;;;;4.40;3.22;;;14.10;99.90;;;;;;5012809;28;20030;-80
2022/06/06 01:06:22;;;;;;;7.82;3.30;;;14.00;99.90;;;;;;5015727;28;20060;-82
2022/06/06 01:08:48;;;;;;;5.18;3.10;;;15.60;99.90;;;;;;5012521;28;20061;-78
2022/06/06 01:11:14;;;;;;;5.53;3.03;;;13.90;99.90;;;;;;5008314;28;20041;-79
2022/06/06 01:13:45;;;;;;;5.90;3.95;;;13.90;99.90;;;;;;5010559;28;20026;-79
2022/06/06 01:16:51;;;;;;;4.65;3.17;;;13.80;99.90;;;;;;5010318;28;20046;-77
2022/06/06 01:19:42;;;;;;;6.07;2.85;;;13.80;99.90;;;;;;4969876;28;20066;-78
2022/06/06 01:22:24;;;;;;;5.03;3.78;;;13.60;99.90;;;;;;4970877;28;20046;-80
2022/06/06 01:25:20;;;;;;;4.45;3.72;;;13.80;99.90;;;;;;5019738;28;20034;-78
2022/06/06 01:28:06;;;;;;;4.22;3.08;;;14.10;99.90;;;;;;5032968;28;20025;-78
2022/06/06 01:30:39;;;;;;;4.72;3.53;;;14.40;99.90;;;;;;5019818;28;20049;-78
2022/06/06 01:33:09;;;;;;;8.52;3.47;;;14.40;99.90;;;;;;5031407;28;20371;-79
2022/06/06 01:35:39;;;;;;;5.07;3.00;;;14.50;99.90;;;;;;5037554;28;20025;-78
2022/06/06 01:38:06;;;;;;;2.97;2.47;;;14.50;99.90;;;;;;5036391;28;20048;-79
2022/06/06 01:40:55;;;;;;;5.10;3.55;;;14.40;99.90;;;;;;5038491;28;20196;-78
2022/06/06 01:43:27;;;;;;;;;;;14.30;99.90;;;;;;5040211;28;20060;-80
2022/06/06 01:46:02;;;;;;;3.53;3.22;;;14.20;99.90;;;;;;5038156;28;19939;-79
2022/06/06 01:48:34;;;;;;;5.30;3.47;;;14.10;99.90;;;;;;5039132;28;20044;-79
2022/06/06 01:51:11;;;;;;;6.57;3.88;;;14.00;99.90;;;;;;5038266;28;20028;-79
2022/06/06 01:53:39;;;;;;;6.55;3.25;;;14.00;99.90;;;;;;5035586;28;20060;-79
2022/06/06 01:56:07;;;;;;;4.30;3.25;;;13.90;99.90;;;;;;5036377;28;20044;-79
2022/06/06 01:58:34;;;;;;;3.42;3.13;;;13.80;99.90;;;;;;5035283;28;20029;-79
2022/06/06 02:01:02;;;;;;;4.55;2.97;;;13.70;99.90;;;;;;5038559;28;20156;-79
2022/06/06 02:03:29;;;;;;;4.00;2.70;;;13.70;99.90;;;;;;5037961;28;20025;-79
2022/06/06 02:05:55;;;;;;;8.57;3.75;;;13.50;99.90;;;;;;5037200;28;20067;-79
2022/06/06 02:08:20;;;;;;;5.03;3.10;;;13.50;99.90;;;;;;5036303;28;20490;-80
2022/06/06 02:10:50;;;;;;;4.20;3.80;;;13.50;99.90;;;;;;5035514;28;20382;-79
2022/06/06 02:13:16;;;;;;;5.47;3.85;;;13.70;99.90;;;;;;5039364;28;20040;-79
2022/06/06 02:15:46;;;;;;;3.95;3.17;;;13.80;99.90;;;;;;5046725;28;20075;-79
2022/06/06 02:18:14;;;;;;;14.32;4.25;;;14.00;99.90;;;;;;5036423;28;20091;-80
2022/06/06 02:20:40;;;;;;;6.80;3.35;;;14.00;99.90;;;;;;5032694;28;20390;-79
2022/06/06 02:23:06;;;;;;;5.50;3.30;;;14.00;99.90;;;;;;5033219;28;20030;-80
2022/06/06 02:25:33;;;;;;;3.88;2.83;;;14.00;99.90;;;;;;5032200;28;20041;-79
2022/06/06 02:28:01;;;;;;;4.72;3.00;;;14.00;99.90;;;;;;5033291;28;20151;-79
2022/06/06 02:30:30;;;;;;;5.85;3.20;;;13.90;99.90;;;;;;5032981;28;20040;-79
2022/06/06 02:32:57;;;;;;;4.32;3.83;;;13.90;99.90;;;;;;5032855;28;20482;-80
2022/06/06 02:35:30;;;;;;;6.63;3.80;;;13.90;99.90;;;;;;5035987;28;20178;-79
2022/06/06 02:37:56;;;;;;;4.10;3.70;;;13.90;99.90;;;;;;5039372;28;20108;-79
2022/06/06 02:40:23;;;;;;;7.30;3.65;;;13.90;99.90;;;;;;5042608;28;20029;-79
2022/06/06 02:42:49;;;;;;;7.30;3.50;;;13.90;99.90;;;;;;5040145;28;20022;-79
2022/06/06 02:45:16;;;;;;;5.03;3.78;;;13.90;99.90;;;;;;5033537;28;20473;-79
2022/06/06 02:47:45;;;;;;;5.57;2.50;;;13.80;99.90;;;;;;5032767;28;20025;-80
2022/06/06 02:50:10;;;;;;;5.70;3.27;;;13.70;99.90;;;;;;5031432;28;20025;-79
2022/06/06 02:52:38;;;;;;;3.72;3.17;;;13.70;99.90;;;;;;5029911;28;20026;-80
2022/06/06 02:55:05;;;;;;;4.75;3.08;;;13.60;99.90;;;;;;5030239;28;20032;-80
2022/06/06 02:57:32;;;;;;;7.35;2.90;;;13.60;99.90;;;;;;5031923;28;20037;-80
2022/06/06 03:00:00;;;;;;;5.35;3.65;;;13.50;99.90;;;;;;5033087;28;20039;-79
2022/06/06 03:02:26;;;;;;;4.40;2.92;;;13.30;99.90;;;;;;5031756;28;20368;-80
2022/06/06 03:04:52;;;;;;;7.03;4.18;;;13.30;99.90;;;;;;5038416;28;20063;-80
2022/06/06 03:07:32;;;;;;;5.90;3.30;;;13.40;99.90;;;;;;5037107;28;20018;-80
2022/06/06 03:10:07;;;;;;;;;;;13.30;99.90;;;;;;5037506;28;20490;-80
2022/06/06 03:13:09;;;;;;;3.95;3.13;;;13.20;99.90;;;;;;5035520;28;19997;-79
2022/06/06 03:15:41;;;;;;;6.60;3.65;;;13.50;99.90;;;;;;5037441;28;20124;-79
2022/06/06 03:21:45;;;;;;;4.55;3.00;;;13.40;99.90;;;;;;5038124;28;20167;-80
2022/06/06 03:24:26;;;;;;;4.40;3.58;;;13.30;99.90;;;;;;5039636;28;20032;-80
2022/06/06 03:27:14;;;;;;;3.53;3.22;;;13.20;99.90;;;;;;5036690;28;20029;-79
2022/06/06 03:29:55;;;;;;;5.83;2.97;;;13.10;99.90;;;;;;5035311;28;20030;-80
2022/06/06 03:32:31;;;;;;;9.80;4.68;;;13.00;99.90;;;;;;5036216;28;20082;-80
2022/06/06 03:35:23;;;;;;;5.93;3.58;;;13.00;99.90;;;;;;5032214;28;20022;-80
2022/06/06 03:38:12;;;;;;;4.70;3.72;;;12.80;99.90;;;;;;5021882;28;20037;-79
2022/06/06 03:40:47;;;;;;;4.60;3.53;;;13.00;99.90;;;;;;5032093;28;20048;-80
2022/06/06 03:43:33;;;;;;;4.38;3.85;;;13.20;99.90;;;;;;5031678;28;20045;-79
2022/06/06 03:46:14;;;;;;;3.70;3.30;;;13.20;99.90;;;;;;5030601;28;20037;-80
2022/06/06 03:48:58;;;;;;;5.45;3.38;;;13.10;99.90;;;;;;5032757;28;20021;-79
2022/06/06 03:51:40;;;;;;;4.05;3.47;;;13.00;99.90;;;;;;5034809;28;20037;-79
2022/06/06 03:54:30;;;;;;;4.85;3.47;;;12.80;99.90;;;;;;5037087;28;20022;-80
2022/06/06 03:57:12;;;;;;;4.13;3.65;;;12.80;99.90;;;;;;5034580;28;20022;-80
2022/06/06 03:59:39;;;;;;;5.88;3.35;;;12.70;99.90;;;;;;5032215;28;20036;-80
2022/06/06 04:02:07;;;;;;;7.63;4.57;;;12.80;99.90;;;;;;5033082;28;20026;-80
2022/06/06 04:04:34;;;;;;;12.02;4.10;;;12.80;99.90;;;;;;5031010;28;20026;-80
2022/06/06 04:07:02;;;;;;;5.50;3.78;;;12.90;99.90;;;;;;5030015;28;20063;-79
2022/06/06 04:09:33;;;;;;;5.70;3.17;;;12.90;99.90;;;;;;5030981;28;20021;-80
2022/06/06 04:12:08;;;;;;;4.10;3.53;;;12.90;99.90;;;;;;5032036;28;20025;-79
2022/06/06 04:14:53;;;;;;;4.78;3.92;;;13.00;99.90;;;;;;5047162;28;20049;-79
2022/06/06 04:17:45;;;;;;;4.32;3.28;;;13.00;99.90;;;;;;5031481;28;20101;-79
2022/06/06 04:20:32;;;;;;;6.57;3.80;;;13.00;99.90;;;;;;5031915;28;20489;-80
2022/06/06 04:23:13;;;;;;;4.07;3.28;;;12.90;99.90;;;;;;5038035;28;20041;-79
2022/06/06 04:25:53;;;;;;;4.82;4.28;;;13.00;99.90;;;;;;5037929;28;20025;-79
2022/06/06 04:28:34;;;;;;;4.20;3.33;;;13.00;99.90;;;;;;5037605;28;20565;-79
2022/06/06 04:31:22;;;;;;;5.90;3.40;;;13.10;99.90;;;;;;5039073;28;20105;-80
2022/06/06 04:33:50;;;;;;;3.25;2.95;;;13.20;99.90;;;;;;5052950;28;20022;-79
2022/06/06 04:36:37;;;;;;;2.85;2.63;;;13.40;99.90;;;;;;5034700;28;20493;-80
2022/06/06 04:39:35;;;;;;;6.20;2.70;;;13.30;99.90;;;;;;5033471;28;20506;-79
2022/06/06 04:42:10;;;;;;;3.95;2.83;;;13.50;99.90;;;;;;5034249;28;20029;-80
2022/06/06 04:44:50;;;;;;;2.78;2.42;;;13.70;99.90;;;;;;5033194;28;20035;-80
2022/06/06 04:47:26;;;;;;;2.60;2.40;;;14.00;99.90;;;;;;5032842;28;20478;-79
2022/06/06 04:49:54;;;;;;;3.35;2.20;;;14.40;99.90;;;;;;5035903;28;20057;-80
2022/06/06 04:52:22;;;;;;;5.25;2.08;;;14.60;99.90;;;;;;5035698;28;20063;-80
2022/06/06 04:54:48;;;;;;;2.03;1.92;;;14.60;99.90;;;;;;5033535;28;20025;-79
2022/06/06 04:57:17;;;;;;;2.50;2.30;;;14.70;99.90;;;;;;5034214;28;20044;-79
2022/06/06 04:59:44;;;;;;;3.17;1.92;;;14.60;99.90;;;;;;5031575;28;20029;-80
2022/06/06 05:02:11;;;;;;;2.15;1.80;;;14.60;99.90;;;;;;5031678;28;20117;-80
2022/06/06 05:04:37;;;;;;;3.63;2.38;;;14.70;99.90;;;;;;5027948;28;20097;-79
2022/06/06 05:07:37;;;;;;;8.77;2.70;;;14.70;99.90;;;;;;5030913;28;20416;-80
2022/06/06 05:10:16;;;;;;;4.45;2.53;;;14.70;99.90;;;;;;5028728;28;20165;-80
2022/06/06 05:12:59;;;;;;;2.67;2.20;;;14.80;99.90;;;;;;5029958;28;20428;-80
2022/06/06 05:15:44;;;;;;;3.67;2.38;;;15.10;99.90;;;;;;5029905;28;20056;-81
2022/06/06 05:18:28;;;;;;;7.75;2.30;;;15.30;99.90;;;;;;5028325;28;20485;-80
2022/06/06 05:21:12;;;;;;;2.40;2.20;;;15.50;99.90;;;;;;5028724;28;20029;-80
2022/06/06 05:24:07;;;;;;;2.45;2.25;;;15.60;99.90;;;;;;5030424;28;20036;-80
2022/06/06 05:27:11;;;;;;;3.08;1.70;;;15.70;99.90;;;;;;5030557;28;20547;-79
2022/06/06 05:29:39;;;;;;;3.13;1.70;;;16.10;99.90;;;;;;5011878;28;20536;-80
2022/06/06 05:32:20;;;;;;;1.83;1.65;;;16.20;99.90;;;;;;5031422;28;20104;-79
2022/06/06 05:35:05;;;;;;;1.80;1.70;;;16.40;99.90;;;;;;5020082;28;20079;-80
2022/06/06 05:37:55;;;;;;;1.40;1.30;;;16.70;99.90;;;;;;5021846;28;20418;-80
2022/06/06 05:40:33;;;;;;;2.80;1.27;;;17.00;99.90;;;;;;5027039;28;20033;-81
2022/06/06 05:43:25;;;;;;;2.10;1.90;;;17.30;99.90;;;;;;5044655;28;20018;-79
2022/06/06 05:46:11;;;;;;;1.70;1.60;;;17.50;99.90;;;;;;5045132;28;20036;-79
2022/06/06 05:49:05;;;;;;;1.70;1.50;;;17.40;99.90;;;;;;5034066;28;20010;-80
2022/06/06 05:51:44;;;;;;;2.45;1.45;;;17.60;99.90;;;;;;5057659;28;20349;-79
2022/06/06 05:54:47;;;;;;;5.20;2.78;;;17.70;99.90;;;;;;5021366;28;20056;-79
2022/06/06 05:57:24;;;;;;;1.50;1.30;;;17.60;99.90;;;;;;5021230;28;20335;-80
2022/06/06 05:59:53;;;;;;;1.92;1.42;;;17.50;99.90;;;;;;5019927;28;20042;-80
2022/06/06 06:02:36;;;;;;;2.92;1.30;;;17.50;99.90;;;;;;5018006;28;20561;-80
2022/06/06 06:05:20;;;;;;;2.15;1.20;;;17.80;99.90;;;;;;5010462;28;20105;-80
2022/06/06 06:08:10;;;;;;;1.40;1.30;;;18.00;99.90;;;;;;5024882;28;20034;-80
2022/06/06 06:10:44;;;;;;;3.40;1.77;;;18.10;99.90;;;;;;5029109;28;20107;-79
2022/06/06 06:13:42;;;;;;;1.77;1.30;;;18.20;99.90;;;;;;5030616;28;20347;-80
2022/06/06 06:16:10;;;;;;;2.30;1.43;;;18.20;99.90;;;;;;4999439;28;20057;-79
2022/06/06 06:18:45;;;;;;;1.27;1.17;;;18.70;99.90;;;;;;5027882;28;20037;-80
2022/06/06 06:21:12;;;;;;;1.77;1.67;;;19.00;99.90;;;;;;5029156;28;20044;-79
2022/06/06 06:23:48;;;;;;;3.28;1.80;;;19.20;99.90;;;;;;5028772;28;20100;-79
2022/06/06 06:26:13;;;;;;;1.60;1.50;;;19.20;99.90;;;;;;5030019;28;20025;-80
2022/06/06 06:28:43;;;;;;;2.92;1.83;;;19.10;99.90;;;;;;5028882;28;20544;-80
2022/06/06 06:31:27;;;;;;;1.70;1.60;;;19.00;99.90;;;;;;5029281;28;20040;-79
2022/06/06 06:34:11;;;;;;;1.33;1.10;;;19.00;99.90;;;;;;5029978;28;20036;-80
2022/06/06 06:36:44;;;;;;;2.00;1.60;;;19.40;99.90;;;;;;5029500;28;20455;-80
2022/06/06 06:39:52;;;;;;;1.98;1.40;;;19.60;99.90;;;;;;5032911;28;20029;-80
2022/06/06 06:42:48;;;;;;;6.13;1.77;;;19.60;99.90;;;;;;5030848;28;20329;-80
2022/06/06 06:45:25;;;;;;;2.17;1.67;;;19.20;99.90;;;;;;5034513;28;20057;-80
2022/06/06 06:47:57;;;;;;;3.05;1.40;;;19.20;99.90;;;;;;5031328;28;20033;-80
2022/06/06 06:50:41;;;;;;;3.50;1.48;;;20.70;99.90;;;;;;5029888;28;20028;-79
2022/06/06 06:53:37;;;;;;;2.08;1.55;;;19.90;99.90;;;;;;5030095;28;20033;-80
2022/06/06 06:56:29;;;;;;;2.00;1.70;;;19.60;99.90;;;;;;5028737;28;20053;-80
2022/06/06 06:59:16;;;;;;;3.55;1.85;;;19.80;99.90;;;;;;5028287;28;20474;-80
2022/06/06 07:08:43;;;;;;;2.55;1.35;;;19.90;99.90;;;;;;4984420;28;20036;-78
2022/06/06 07:11:09;;;;;;;2.17;1.48;;;19.90;99.90;;;;;;5029380;28;20032;-80
2022/06/06 07:14:08;;;;;;;1.60;1.50;;;20.00;99.90;;;;;;5028203;28;20112;-80
2022/06/06 07:16:37;;;;;;;2.55;1.00;;;20.20;99.90;;;;;;5027751;28;20048;-79
2022/06/06 07:19:08;;;;;;;2.78;1.27;;;20.20;99.90;;;;;;5029166;28;20044;-78
2022/06/06 07:21:35;;;;;;;1.83;1.52;;;20.40;99.90;;;;;;5028196;28;20030;-78
2022/06/06 07:24:05;;;;;;;1.83;1.20;;;20.40;99.90;;;;;;5029301;28;20071;-78
2022/06/06 07:26:37;;;;;;;1.95;1.35;;;20.00;99.90;;;;;;5029578;28;20033;-80
2022/06/06 07:29:05;;;;;;;2.92;1.40;;;19.80;99.90;;;;;;5029385;28;20026;-80
2022/06/06 07:31:33;;;;;;;2.05;1.30;;;19.80;99.90;;;;;;5028041;28;20608;-79
2022/06/06 07:34:30;;;;;;;1.35;1.25;;;19.70;99.90;;;;;;5029772;28;20554;-79
2022/06/06 07:37:14;;;;;;;1.48;1.38;;;19.50;99.90;;;;;;5029282;28;20029;-79
2022/06/06 07:39:47;;;;;;;2.60;1.95;;;19.70;99.90;;;;;;5029143;28;20401;-79
2022/06/06 07:42:50;;;;;;;1.30;1.20;;;19.90;99.90;;;;;;5029515;28;20018;-79
2022/06/06 07:45:31;;;;;;;9.10;2.08;;;19.60;99.90;;;;;;5021633;28;20188;-79
2022/06/06 07:48:21;;;;;;;1.80;1.30;;;19.90;99.90;;;;;;5007922;28;20033;-80
2022/06/06 07:51:06;;;;;;;1.45;1.30;;;19.90;99.90;;;;;;5009231;28;20026;-80
2022/06/06 07:53:47;;;;;;;3.00;2.15;;;20.40;99.90;;;;;;5007626;28;20053;-78
2022/06/06 07:56:35;;;;;;;2.25;1.00;;;20.80;99.90;;;;;;5009273;28;20040;-80
2022/06/06 07:59:09;;;;;;;1.75;1.20;;;20.70;99.90;;;;;;5012830;28;20582;-80
2022/06/06 08:02:19;;;;;;;1.65;1.55;;;20.80;99.90;;;;;;5011859;28;20033;-79
2022/06/06 08:05:03;;;;;;;5.40;1.92;;;20.70;99.90;;;;;;4951503;28;20408;-77
2022/06/06 08:07:38;;;;;;;2.35;1.33;;;21.20;99.90;;;;;;5005058;28;20486;-77
2022/06/06 08:10:34;;;;;;;2.78;1.40;;;21.90;99.90;;;;;;5012994;28;20030;-78
2022/06/06 08:13:06;;;;;;;1.20;1.05;;;21.90;99.90;;;;;;5011547;28;20398;-78
2022/06/06 08:15:43;;;;;;;3.05;0.98;;;21.50;99.90;;;;;;5011263;28;20114;-80
2022/06/06 08:18:39;;;;;;;1.60;1.23;;;21.20;99.90;;;;;;5010118;28;20037;-80
2022/06/06 08:21:35;;;;;;;2.25;1.00;;;21.80;99.90;;;;;;5009222;28;20037;-80
2022/06/06 08:24:06;;;;;;;15.20;2.67;;;21.50;99.90;;;;;;5007715;28;20037;-80
2022/06/06 08:26:36;;;;;;;2.83;1.15;;;21.80;99.90;;;;;;5021139;28;20028;-79
2022/06/06 08:29:07;;;;;;;2.08;1.00;;;21.70;99.90;;;;;;5046793;28;20025;-79
2022/06/06 08:31:33;;;;;;;0.95;0.80;;;21.40;99.90;;;;;;5047475;28;20022;-79
2022/06/06 08:33:59;;;;;;;2.03;1.10;;;21.20;99.90;;;;;;5032313;28;20032;-79
2022/06/06 08:37:04;;;;;;;1.10;1.00;;;21.60;99.90;;;;;;5036091;28;20480;-80
2022/06/06 08:39:41;;;;;;;1.30;1.20;;;21.80;99.90;;;;;;5032596;28;20052;-79
2022/06/06 08:42:38;;;;;;;1.90;1.10;;;22.10;99.90;;;;;;5047169;28;20064;-80
2022/06/06 08:45:15;;;;;;;2.20;1.20;;;21.60;99.90;;;;;;5034743;28;20029;-81
2022/06/06 08:48:06;;;;;;;4.57;1.50;;;21.10;99.90;;;;;;5031716;28;20064;-80
2022/06/06 08:50:59;;;;;;;1.45;1.00;;;21.20;99.90;;;;;;5047057;28;20030;-78
2022/06/06 08:53:31;;;;;;;1.40;0.95;;;21.00;99.90;;;;;;5047650;28;20505;-82
2022/06/06 08:56:34;;;;;;;1.27;1.17;;;20.80;99.90;;;;;;5049256;28;20048;-81
2022/06/06 08:59:08;;;;;;;1.17;1.13;;;20.60;99.90;;;;;;5050378;28;20037;-82
2022/06/06 09:01:58;;;;;;;1.30;1.20;;;20.60;99.90;;;;;;5033208;28;20048;-82
2022/06/06 09:04:57;;;;;;;2.97;1.10;;;21.10;99.90;;;;;;5047021;28;20429;-81
2022/06/06 09:07:49;;;;;;;1.38;1.23;;;21.40;99.90;;;;;;5031784;28;20021;-80
2022/06/06 09:10:39;;;;;;;2.72;1.70;;;21.70;99.90;;;;;;5035068;28;20028;-75
2022/06/06 09:13:14;;;;;;;2.15;1.08;;;21.50;99.90;;;;;;5047063;28;20371;-75
2022/06/06 09:15:58;;;;;;;1.27;1.17;;;21.80;99.90;;;;;;5032126;28;20406;-76
2022/06/06 09:18:39;;;;;;;1.15;1.05;;;22.00;99.90;;;;;;5033644;28;20037;-76
2022/06/06 09:21:04;;;;;;;1.20;1.02;;;22.50;99.90;;;;;;5032548;28;20025;-74
2022/06/06 09:24:02;;;;;;;1.17;1.00;;;23.10;99.90;;;;;;5031411;28;20014;-76
2022/06/06 09:26:32;;;;;;;1.13;1.00;;;23.10;99.90;;;;;;5046589;28;20036;-76
2022/06/06 09:29:30;;;;;;;1.45;1.10;;;22.80;99.90;;;;;;5043856;28;20040;-76
2022/06/06 09:32:42;;;;;;;3.78;1.20;;;23.10;99.90;;;;;;5037123;28;20021;-76
2022/06/06 09:35:08;;;;;;;1.40;1.10;;;23.20;99.90;;;;;;5029484;28;20252;-76
2022/06/06 09:37:55;;;;;;;0.95;0.90;;;23.00;99.90;;;;;;5031190;28;20466;-74
2022/06/06 09:40:42;;;;;;;3.50;1.05;;;23.10;99.90;;;;;;5029429;28;20022;-76
2022/06/06 09:43:15;;;;;;;4.57;2.45;;;22.80;99.90;;;;;;5013427;28;20062;-75
2022/06/06 09:45:55;;;;;;;2.13;1.13;;;23.40;99.90;;;;;;5032530;28;20396;-77
2022/06/06 09:48:43;;;;;;;2.05;1.00;;;23.70;99.90;;;;;;5032825;28;20017;-75
2022/06/06 09:51:29;;;;;;;3.88;2.78;;;23.80;99.90;;;;;;5030104;28;20010;-75
2022/06/06 10:00:21;;;;;;;1.70;1.20;;;23.90;97.40;;;;;;5020501;28;20032;-75
2022/06/06 10:02:50;;;;;;;8.32;2.65;;;23.10;99.90;;;;;;5002479;28;20092;-76
2022/06/06 10:06:00;;;;;;;1.30;1.00;;;23.60;99.90;;;;;;5019574;28;20053;-76
2022/06/06 10:08:41;;;;;;;1.30;1.15;;;23.80;99.90;;;;;;5001297;28;20262;-76
2022/06/06 10:11:33;;;;;;;1.30;1.20;;;24.30;97.70;;;;;;5019283;28;20033;-75
2022/06/06 10:14:17;;;;;;;0.90;0.90;;;24.80;92.40;;;;;;5020559;28;20105;-76
2022/06/06 10:17:19;;;;;;;3.15;1.50;;;24.10;99.90;;;;;;5020457;28;20041;-75
2022/06/06 10:20:13;;;;;;;6.40;5.78;;;23.80;92.00;;;;;;5029873;28;20025;-75
2022/06/06 10:22:50;;;;;;;2.17;1.67;;;24.50;86.20;;;;;;5039852;28;20084;-75
2022/06/06 10:25:29;;;;;;;3.20;1.40;;;24.90;95.30;;;;;;5039481;28;20034;-75
2022/06/06 10:28:23;;;;;;;1.70;0.90;;;25.10;72.10;;;;;;5021409;28;20088;-76
2022/06/06 10:30:54;;;;;;;3.10;1.10;;;25.20;79.40;;;;;;5019224;28;20034;-76
2022/06/06 10:33:45;;;;;;;3.05;2.63;;;25.00;88.30;;;;;;5020632;28;20056;-75
2022/06/06 10:36:11;;;;;;;2.95;1.15;;;25.50;73.90;;;;;;5019697;28;20048;-76
2022/06/06 10:38:58;;;;;;;1.95;1.20;;;24.70;86.20;;;;;;5020089;28;20057;-75
2022/06/06 10:41:52;;;;;;;2.40;1.85;;;23.70;93.90;;;;;;5020291;28;20044;-76
2022/06/06 10:44:57;;;;;;;5.10;2.30;;;23.40;99.90;;;;;;5020106;28;20302;-78
2022/06/06 10:48:02;;;;;;;1.55;1.40;;;22.90;99.90;;;;;;5021104;28;20214;-79
2022/06/06 10:53:59;;;;;;;1.30;0.82;;;23.70;99.90;;;;;;5000330;28;20073;-78
2022/06/06 10:56:33;;;;;;;1.38;1.20;;;23.80;98.30;;;;;;5020741;28;20504;-79
2022/06/06 10:59:37;;;;;;;1.65;1.35;;;24.10;92.50;;;;;;5035291;28;20057;-75
2022/06/06 11:02:21;;;;;;;1.95;1.63;;;23.90;94.40;;;;;;5037034;28;20222;-75
2022/06/06 11:05:00;;;;;;;2.42;1.90;;;23.60;99.90;;;;;;5037295;28;20029;-73
2022/06/06 11:07:38;;;;;;;;;;;24.20;98.30;;;;;;5028888;28;20026;-76
2022/06/06 11:10:23;;;;;;;2.10;1.02;;;24.30;99.90;;;;;;5031472;28;19912;-77
2022/06/06 11:13:11;;;;;;;2.85;1.08;;;25.50;88.10;;;;;;5028076;28;20037;-79
2022/06/06 11:15:57;;;;;;;1.48;1.05;;;24.80;91.80;;;;;;5029122;28;20136;-75
2022/06/06 11:18:28;;;;;;;0.80;0.80;;;24.60;96.60;;;;;;5029408;28;20077;-76
2022/06/06 11:21:29;;;;;;;1.40;1.27;;;25.10;92.60;;;;;;5029408;28;20074;-76
2022/06/06 11:24:21;;;;;;;2.33;1.20;;;24.70;87.30;;;;;;5004924;28;20033;-76
2022/06/06 11:27:10;;;;;;;1.92;1.10;;;24.10;98.50;;;;;;5032214;28;20028;-75
2022/06/06 11:30:09;;;;;;;1.45;1.30;;;24.30;99.20;;;;;;5031022;28;20049;-75
2022/06/06 11:32:50;;;;;;;2.92;2.13;;;23.70;99.30;;;;;;5030615;28;20013;-75
2022/06/06 11:35:48;;;;;;;0.80;0.80;;;23.90;98.80;;;;;;5029277;28;20030;-76
2022/06/06 11:38:31;;;;;;;0.98;0.98;;;23.80;99.90;;;;;;5011524;28;20045;-78
2022/06/06 11:41:31;;;;;;;2.45;1.13;;;23.90;96.10;;;;;;5028009;28;20021;-78
2022/06/06 11:44:30;;;;;;;1.98;1.48;;;24.10;99.30;;;;;;5029980;28;20033;-76
2022/06/06 11:46:55;;;;;;;;;;;24.70;95.20;;;;;;5038114;28;20055;-77
2022/06/06 11:49:45;;;;;;;1.13;0.68;;;25.40;77.80;;;;;;5030330;28;20205;-79
2022/06/06 11:52:50;;;;;;;0.82;0.82;;;25.30;73.20;;;;;;5027597;28;20052;-79
2022/06/06 11:55:45;;;;;;;1.85;0.82;;;25.00;87.00;;;;;;5036694;28;20052;-79
2022/06/06 11:58:36;;;;;;;1.55;1.27;;;24.60;80.00;;;;;;5037478;28;20036;-79
2022/06/06 12:01:20;;;;;;;0.88;0.88;;;25.50;75.10;;;;;;5037158;28;20314;-75
2022/06/06 12:04:21;;;;;;;1.42;0.90;;;25.40;65.90;;;;;;5038715;28;20049;-78
2022/06/06 12:07:02;;;;;;;0.95;0.93;;;26.30;65.10;;;;;;5033624;28;20029;-78
2022/06/06 12:10:05;;;;;;;1.63;1.00;;;27.40;64.40;;;;;;5037633;28;20258;-72
2022/06/06 12:13:19;;;;;;;3.13;1.50;;;26.90;61.70;;;;;;5052704;28;20209;-75
2022/06/06 12:16:06;;;;;;;2.03;1.27;;;25.90;64.80;;;;;;5038656;28;20059;-77
2022/06/06 12:18:38;;;;;;;1.52;1.00;;;25.10;73.10;;;;;;5039175;28;20033;-75
2022/06/06 12:21:41;;;;;;;4.35;1.42;;;25.30;70.80;;;;;;5040263;28;20018;-74
2022/06/06 12:24:38;;;;;;;1.98;1.23;;;26.00;65.40;;;;;;5017571;28;20255;-74
2022/06/06 12:27:46;;;;;;;1.30;0.80;;;26.00;67.20;;;;;;5011021;28;20406;-74
2022/06/06 12:30:33;;;;;;;3.80;3.17;;;26.70;63.80;;;;;;5017591;28;20040;-73
2022/06/06 12:33:04;;;;;;;1.95;0.88;;;27.00;63.00;;;;;;5012279;28;20100;-76
2022/06/06 12:35:55;;;;;;;1.75;1.25;;;26.80;64.00;;;;;;5009000;28;20030;-77
2022/06/06 12:38:48;;;;;;;1.63;0.90;;;27.10;63.20;;;;;;5008809;28;20561;-76
2022/06/06 12:41:22;;;;;;;2.28;1.00;;;27.10;62.60;;;;;;5008463;28;20026;-76
2022/06/06 12:43:59;;;;;;;1.15;0.77;;;27.90;61.30;;;;;;5010006;28;20021;-73
2022/06/06 12:46:48;;;;;;;1.42;0.73;;;28.20;57.70;;;;;;5012974;28;20029;-74
2022/06/06 12:49:47;;;;;;;0.90;0.90;;;27.90;58.30;;;;;;5012358;28;20510;-73
2022/06/06 12:52:54;;;;;;;2.43;0.70;;;27.00;59.80;;;;;;5012172;28;20374;-76
2022/06/06 12:56:20;;;;;;;1.00;0.90;;;26.80;61.70;;;;;;5011417;28;20034;-75
2022/06/06 12:59:23;;;;;;;0.82;0.80;;;26.60;61.80;;;;;;5020827;28;20072;-73
2022/06/06 13:02:16;;;;;;;0.85;0.60;;;27.00;60.90;;;;;;5010878;28;20322;-73
2022/06/06 13:04:47;;;;;;;3.92;0.75;;;25.60;65.10;;;;;;5008734;28;20403;-73
2022/06/06 13:07:29;;;;;;;1.10;0.70;;;25.40;66.40;;;;;;5025761;28;20116;-73
2022/06/06 13:10:06;;;;;;;3.45;0.88;;;25.40;70.60;;;;;;5010484;28;20022;-73
2022/06/06 13:12:50;;;;;;;0.60;0.60;;;26.20;67.30;;;;;;5010508;28;20036;-73
2022/06/06 13:15:24;;;;;;;0.95;0.80;;;26.70;64.40;;;;;;5008904;28;20138;-73
2022/06/06 13:18:22;;;;;;;1.55;1.40;;;26.60;64.10;;;;;;5010079;28;20057;-73
2022/06/06 13:21:25;;;;;;;0.80;0.80;;;25.40;77.10;;;;;;5024862;28;20490;-73
2022/06/06 13:24:14;;;;;;;0.85;0.80;;;25.30;77.90;;;;;;5010405;28;20026;-76
2022/06/06 13:26:50;;;;;;;1.90;0.90;;;24.90;75.40;;;;;;5011945;28;20490;-75
2022/06/06 13:29:42;;;;;;;2.75;1.33;;;24.10;88.40;;;;;;5027441;28;20395;-73
2022/06/06 13:32:17;;;;;;;0.90;0.90;;;24.80;94.60;;;;;;5008340;28;20034;-75
2022/06/06 13:34:46;;;;;;;1.67;0.90;;;25.70;70.70;;;;;;5011406;28;20030;-75
2022/06/06 13:37:14;;;;;;;1.08;0.80;;;25.80;68.60;;;;;;5010225;28;20022;-75
2022/06/06 13:39:58;;;;;;;1.13;0.52;;;25.20;75.20;;;;;;5011495;28;20062;-73
2022/06/06 13:42:48;;;;;;;2.25;1.05;;;24.60;81.90;;;;;;5011874;28;20115;-76
2022/06/06 13:45:13;;;;;;;2.15;1.02;;;24.80;74.60;;;;;;5011758;28;20052;-75
2022/06/06 13:47:54;;;;;;;1.38;0.90;;;25.10;70.60;;;;;;5011610;28;20104;-76
2022/06/06 13:50:38;;;;;;;1.00;0.80;;;25.40;70.00;;;;;;5009908;28;20030;-75
2022/06/06 13:53:48;;;;;;;1.67;0.98;;;25.10;69.30;;;;;;5011316;28;20117;-76
2022/06/06 13:56:38;;;;;;;2.97;1.33;;;26.60;66.20;;;;;;5009870;28;20505;-73
2022/06/06 13:59:33;;;;;;;2.03;0.70;;;26.50;60.80;;;;;;5009799;28;20387;-73
2022/06/06 14:02:28;;;;;;;2.22;1.25;;;26.30;63.50;;;;;;5011004;28;20018;-73
2022/06/06 14:05:13;;;;;;;0.55;0.55;;;27.60;60.60;;;;;;5000743;28;20155;-76
2022/06/06 14:08:03;;;;;;;0.98;0.73;;;28.00;59.00;;;;;;5011292;28;20483;-76
2022/06/06 14:10:51;;;;;;;0.95;0.82;;;28.60;59.40;;;;;;5009745;28;20104;-76
2022/06/06 14:13:44;;;;;;;0.95;0.80;;;28.50;56.00;;;;;;5010948;28;20041;-73
2022/06/06 14:16:34;;;;;;;1.60;0.70;;;28.70;55.60;;;;;;5009461;28;20137;-75
2022/06/06 14:19:15;;;;;;;0.70;0.70;;;27.70;58.30;;;;;;5010929;28;20034;-76
2022/06/06 14:21:58;;;;;;;0.77;0.77;;;27.90;58.60;;;;;;5011026;28;20049;-75